Time;durP1;ratioP1;P1;durP2;ratioP2;P2;SDS_P1;SDS_P2;PMS_P1;PMS_P2;Temp;Humidity;BMP_temperature;BMP_pressure;BME280_temperature;BME280_humidity;BME280_pressure;Samples;Min_cycle;Max_cycle;Signal;HPM_P1;HPM_P2
2022/12/23 00:01:01;;;;;;;29.63;9.38;;;;;;;7.71;100.00;100449.53;5094638;28;20464;-80
2022/12/23 00:03:27;;;;;;;28.35;9.63;;;;;;;7.71;100.00;100454.81;5094329;28;20142;-80
2022/12/23 00:05:53;;;;;;;29.35;9.02;;;;;;;7.71;100.00;100460.13;5094934;28;20119;-79
2022/12/23 00:08:19;;;;;;;27.10;8.77;;;;;;;7.69;100.00;100454.94;5094601;28;20106;-80
2022/12/23 00:10:46;;;;;;;29.20;8.80;;;;;;;7.67;100.00;100451.56;5094376;28;20043;-79
2022/12/23 00:16:10;;;;;;;20.70;8.05;;;;;;;7.66;100.00;100463.16;5094637;28;20129;-80
2022/12/23 00:18:36;;;;;;;24.05;8.43;;;;;;;7.65;100.00;100458.81;5094681;28;20032;-80
2022/12/23 00:21:04;;;;;;;24.30;8.90;;;;;;;7.64;100.00;100459.78;5094378;28;20027;-80
2022/12/23 00:23:38;;;;;;;19.60;8.10;;;;;;;7.65;100.00;100458.81;5094224;28;20107;-79
2022/12/23 00:26:05;;;;;;;26.10;9.20;;;;;;;7.68;100.00;100461.19;5094899;28;20028;-79
2022/12/23 00:28:31;;;;;;;26.30;9.40;;;;;;;7.68;100.00;100468.31;5094733;28;20093;-80
2022/12/23 00:31:02;;;;;;;22.58;8.88;;;;;;;7.69;100.00;100467.34;5094156;28;20452;-80
2022/12/23 00:33:36;;;;;;;28.20;9.63;;;;;;;7.72;100.00;100469.75;5094335;28;20387;-79
2022/12/23 00:36:09;;;;;;;21.30;7.93;;;;;;;7.75;100.00;100478.25;5094340;28;20066;-80
2022/12/23 00:44:04;;;;;;;25.17;8.52;;;;;;;7.71;100.00;100482.13;5095201;28;20115;-80
2022/12/23 00:46:30;;;;;;;17.48;7.07;;;;;;;7.70;100.00;100482.25;5094478;28;20024;-80
2022/12/23 00:51:39;;;;;;;18.38;7.95;;;;;;;7.67;100.00;100480.69;5094168;28;20146;-80
2022/12/23 00:54:05;;;;;;;18.10;7.97;;;;;;;7.66;100.00;100479.03;5075747;28;20063;-80
2022/12/23 00:56:30;;;;;;;16.27;8.02;;;;;;;7.67;100.00;100486.00;5093764;28;20028;-80
2022/12/23 00:58:55;;;;;;;15.30;5.40;;;;;;;7.61;100.00;100486.50;5093362;28;20089;-80
2022/12/23 01:06:50;;;;;;;9.13;4.38;;;;;;;7.54;100.00;100501.25;5094186;28;20043;-80
2022/12/23 01:09:15;;;;;;;8.60;3.85;;;;;;;7.52;100.00;100496.06;5093209;28;20044;-79
2022/12/23 01:11:41;;;;;;;8.80;3.83;;;;;;;7.48;100.00;100499.09;5093995;28;20395;-79
2022/12/23 01:14:08;;;;;;;8.00;3.88;;;;;;;7.46;100.00;100493.94;5093573;28;20111;-79
2022/12/23 01:16:37;;;;;;;10.75;4.30;;;;;;;7.44;100.00;100487.94;5093473;28;20444;-79
2022/12/23 01:19:02;;;;;;;7.15;3.72;;;;;;;7.43;100.00;100488.88;5093312;28;20024;-80
2022/12/23 01:21:28;;;;;;;6.28;3.50;;;;;;;7.40;100.00;100497.09;5094023;28;20028;-80
2022/12/23 01:23:53;;;;;;;9.73;3.95;;;;;;;7.39;100.00;100501.56;5093406;28;20028;-80
2022/12/23 01:26:18;;;;;;;7.43;3.90;;;;;;;7.40;100.00;100512.97;5093122;28;20028;-80
2022/12/23 01:28:44;;;;;;;7.82;4.40;;;;;;;7.38;100.00;100509.63;5092996;28;20051;-79
2022/12/23 01:31:09;;;;;;;10.52;4.43;;;;;;;7.35;100.00;100512.53;5093795;28;20032;-79
2022/12/23 01:33:35;;;;;;;10.35;5.35;;;;;;;7.35;100.00;100517.81;5093273;28;20448;-79
2022/12/23 01:36:03;;;;;;;10.45;4.80;;;;;;;7.35;100.00;100525.75;5093369;28;20024;-79
2022/12/23 01:38:29;;;;;;;10.40;4.35;;;;;;;7.35;100.00;100533.69;5093736;28;20020;-80
2022/12/23 01:40:55;;;;;;;6.97;4.65;;;;;;;7.35;100.00;100533.69;5093192;28;20107;-80
2022/12/23 01:43:22;;;;;;;13.27;5.50;;;;;;;7.36;100.00;100538.88;5093274;28;20019;-80
2022/12/23 01:45:47;;;;;;;11.10;5.63;;;;;;;7.34;100.00;100539.94;5093154;28;20024;-80
2022/12/23 01:48:26;;;;;;;11.90;5.53;;;;;;;7.32;100.00;100547.19;5093722;28;20020;-79
2022/12/23 01:51:25;;;;;;;10.82;4.97;;;;;;;7.31;100.00;100541.03;5093507;28;20037;-78
2022/12/23 01:53:56;;;;;;;14.55;6.13;;;;;;;7.32;100.00;100545.38;5093711;28;20047;-78
2022/12/23 01:56:29;;;;;;;11.60;6.70;;;;;;;7.31;100.00;100553.44;5093331;28;20055;-79
2022/12/23 01:59:01;;;;;;;13.20;5.45;;;;;;;7.34;100.00;100547.88;5093445;28;20024;-79
2022/12/23 02:04:17;;;;;;;11.57;5.93;;;;;;;7.33;100.00;100567.38;5093200;28;20069;-78
2022/12/23 02:09:38;;;;;;;12.73;5.72;;;;;;;7.32;100.00;100581.59;5093267;28;20063;-78
2022/12/23 02:12:03;;;;;;;13.73;6.90;;;;;;;7.31;100.00;100580.72;5093246;28;20099;-78
2022/12/23 02:18:02;;;;;;;11.23;6.68;;;;;;;7.29;100.00;100584.47;5092929;28;20038;-78
2022/12/23 02:20:30;;;;;;;12.63;7.05;;;;;;;7.29;100.00;100590.59;5092906;28;20555;-79
2022/12/23 02:23:31;;;;;;;13.75;7.80;;;;;;;7.29;100.00;100585.31;5092821;28;20032;-79
2022/12/23 02:26:20;;;;;;;14.55;7.30;;;;;;;7.28;100.00;100593.38;5092866;28;20115;-79
2022/12/23 02:29:07;;;;;;;14.45;6.43;;;;;;;7.26;100.00;100595.31;5093144;28;20028;-79
2022/12/23 02:31:35;;;;;;;15.00;7.63;;;;;;;7.26;100.00;100611.19;5092822;28;20061;-79
2022/12/23 02:34:43;;;;;;;12.93;6.85;;;;;;;7.21;100.00;100615.03;5074511;28;20028;-79
2022/12/23 02:37:14;;;;;;;14.75;6.47;;;;;;;7.20;100.00;100610.72;5094777;28;20111;-79
2022/12/23 02:39:55;;;;;;;15.07;6.40;;;;;;;7.18;100.00;100617.06;5096825;28;20028;-79
2022/12/23 02:42:52;;;;;;;9.98;5.30;;;;;;;7.20;100.00;100625.75;5096033;28;20479;-78
2022/12/23 02:45:29;;;;;;;12.50;4.90;;;;;;;7.16;100.00;100621.66;5095983;28;20115;-78
2022/12/23 02:48:12;;;;;;;10.18;5.32;;;;;;;7.15;100.00;100622.63;5095884;28;20028;-78
2022/12/23 02:50:41;;;;;;;14.15;5.78;;;;;;;7.11;100.00;100615.91;5096588;28;20073;-80
2022/12/23 02:53:15;;;;;;;11.60;5.47;;;;;;;7.08;100.00;100614.34;5095945;28;20107;-79
2022/12/23 02:55:43;;;;;;;8.65;4.55;;;;;;;7.06;100.00;100611.81;5096351;28;20020;-79
2022/12/23 02:58:14;;;;;;;10.07;4.88;;;;;;;7.07;100.00;100616.13;5095627;28;20020;-79
2022/12/23 03:00:41;;;;;;;11.27;5.85;;;;;;;7.06;100.00;100613.59;5095980;28;20024;-79
2022/12/23 03:03:07;;;;;;;14.02;7.00;;;;;;;7.02;100.00;100613.00;5095858;28;20139;-79
2022/12/23 03:05:39;;;;;;;13.15;6.22;;;;;;;6.99;100.00;100604.50;5095438;28;20055;-78
2022/12/23 03:08:10;;;;;;;12.70;5.82;;;;;;;6.96;100.00;100605.56;5095899;28;20028;-79
2022/12/23 03:10:45;;;;;;;12.80;5.72;;;;;;;6.94;100.00;100609.28;5095575;28;20039;-79
2022/12/23 03:13:52;;;;;;;13.38;5.35;;;;;;;6.94;100.00;100617.22;5096250;28;20067;-78
2022/12/23 03:16:26;;;;;;;12.70;4.72;;;;;;;6.91;100.00;100613.00;5081716;28;20032;-78
2022/12/23 03:19:09;;;;;;;10.10;5.05;;;;;;;6.92;100.00;100616.53;5095811;28;20056;-78
2022/12/23 03:22:06;;;;;;;11.68;5.10;;;;;;;6.93;100.00;100626.97;5095565;28;20056;-78
2022/12/23 03:24:34;;;;;;;8.85;3.95;;;;;;;6.94;100.00;100622.50;5039878;28;20044;-78
2022/12/23 03:27:07;;;;;;;9.77;4.82;;;;;;;6.92;100.00;100630.56;5095303;28;20024;-78
2022/12/23 03:29:41;;;;;;;9.25;4.68;;;;;;;6.90;100.00;100621.94;5095412;28;20020;-78
2022/12/23 03:32:09;;;;;;;9.05;4.88;;;;;;;6.92;100.00;100620.00;5095783;28;20024;-78
2022/12/23 03:34:37;;;;;;;13.85;6.20;;;;;;;6.93;100.00;100626.16;5095888;28;20038;-78
2022/12/23 03:37:07;;;;;;;10.20;4.70;;;;;;;6.92;100.00;100627.09;5095088;28;20031;-77
2022/12/23 03:39:45;;;;;;;12.82;5.18;;;;;;;6.93;100.00;100628.78;5095853;28;20028;-78
2022/12/23 03:42:19;;;;;;;11.52;5.53;;;;;;;6.92;100.00;100621.81;5095050;28;20028;-77
2022/12/23 03:44:47;;;;;;;12.10;5.00;;;;;;;6.93;100.00;100620.84;5077307;28;20050;-78
2022/12/23 03:47:24;;;;;;;7.85;5.30;;;;;;;6.94;100.00;100619.88;5094695;28;20032;-78
2022/12/23 03:49:55;;;;;;;13.45;6.05;;;;;;;6.92;100.00;100617.34;5077624;28;20379;-80
2022/12/23 03:52:25;;;;;;;;;;;;;;;6.88;100.00;100622.06;5095366;28;20032;-78
2022/12/23 03:54:53;;;;;;;12.05;5.53;;;;;;;6.86;100.00;100629.25;5095481;28;19930;-78
2022/12/23 03:57:21;;;;;;;12.48;6.57;;;;;;;6.87;100.00;100632.75;5094738;28;20367;-78
2022/12/23 03:59:52;;;;;;;13.77;6.75;;;;;;;6.86;100.00;100641.63;5094950;28;20024;-78
2022/12/23 04:02:25;;;;;;;8.93;5.88;;;;;;;6.90;100.00;100648.38;5095860;28;20111;-78
2022/12/23 04:05:15;;;;;;;13.00;6.70;;;;;;;6.90;100.00;100645.72;5095269;28;20024;-78
2022/12/23 04:08:23;;;;;;;18.48;8.18;;;;;;;6.89;100.00;100646.69;5094772;28;20057;-79
2022/12/23 04:10:49;;;;;;;17.50;8.68;;;;;;;6.89;100.00;100644.03;5067186;28;20047;-79
2022/12/23 04:13:14;;;;;;;17.33;8.43;;;;;;;6.88;100.00;100645.84;5095095;28;20024;-78
2022/12/23 04:15:41;;;;;;;14.88;8.55;;;;;;;6.86;100.00;100650.41;5094542;28;20456;-79
2022/12/23 04:18:09;;;;;;;14.32;8.13;;;;;;;6.89;100.00;100655.44;5094904;28;20024;-79
2022/12/23 04:20:35;;;;;;;16.40;9.48;;;;;;;6.88;100.00;100652.94;5094378;28;20028;-79
2022/12/23 04:23:00;;;;;;;14.45;7.97;;;;;;;6.88;100.00;100658.22;5094276;28;20028;-79
2022/12/23 04:25:26;;;;;;;19.80;9.35;;;;;;;6.87;100.00;100648.63;5094216;28;20056;-79
2022/12/23 04:27:51;;;;;;;20.55;10.63;;;;;;;6.88;100.00;100650.28;5094270;28;20118;-78
2022/12/23 04:30:17;;;;;;;18.50;8.65;;;;;;;6.88;100.00;100647.63;5094231;28;20040;-78
2022/12/23 04:32:43;;;;;;;17.10;10.10;;;;;;;6.89;100.00;100638.75;5094282;28;20020;-78
2022/12/23 04:35:09;;;;;;;17.85;9.27;;;;;;;6.89;100.00;100646.69;5094011;28;20043;-78
2022/12/23 04:37:35;;;;;;;18.20;8.88;;;;;;;6.91;100.00;100643.91;5093993;28;20483;-79
2022/12/23 04:40:01;;;;;;;16.05;9.13;;;;;;;6.90;100.00;100640.44;5093739;28;20032;-79
2022/12/23 04:42:26;;;;;;;23.58;10.30;;;;;;;6.87;100.00;100632.75;5093962;28;20032;-79
2022/12/23 04:44:51;;;;;;;20.98;10.40;;;;;;;6.86;100.00;100633.69;5094057;28;20158;-79
2022/12/23 04:47:17;;;;;;;16.65;9.48;;;;;;;6.86;100.00;100631.06;5093769;28;20105;-78
2022/12/23 04:49:42;;;;;;;19.60;9.85;;;;;;;6.82;100.00;100630.47;5094191;28;20440;-78
2022/12/23 04:52:08;;;;;;;18.88;9.65;;;;;;;6.82;100.00;100633.13;5093867;28;20139;-79
2022/12/23 04:54:33;;;;;;;18.58;9.95;;;;;;;6.81;100.00;100633.22;5093786;28;20480;-78
2022/12/23 04:56:59;;;;;;;20.67;10.23;;;;;;;6.81;100.00;100642.00;5093775;28;20408;-79
2022/12/23 04:59:24;;;;;;;18.70;9.68;;;;;;;6.81;100.00;100635.88;5093618;28;20413;-79
2022/12/23 05:01:49;;;;;;;18.20;8.80;;;;;;;6.80;100.00;100635.00;5093705;28;20093;-81
2022/12/23 05:04:15;;;;;;;18.65;9.13;;;;;;;6.82;100.00;100632.25;5093660;28;20107;-79
2022/12/23 05:06:41;;;;;;;21.70;10.02;;;;;;;6.84;100.00;100639.13;5093927;28;20024;-78
2022/12/23 05:09:06;;;;;;;16.55;9.23;;;;;;;6.82;100.00;100641.03;5093989;28;20028;-78
2022/12/23 05:11:32;;;;;;;23.55;9.50;;;;;;;6.85;100.00;100643.44;5094097;28;20363;-79
2022/12/23 05:13:57;;;;;;;17.92;9.05;;;;;;;6.83;100.00;100657.75;5093829;28;20069;-79
2022/12/23 05:16:23;;;;;;;17.13;9.32;;;;;;;6.82;100.00;100656.91;5093194;28;20508;-79
2022/12/23 05:18:48;;;;;;;21.52;10.38;;;;;;;6.81;100.00;100655.22;5093468;28;20020;-78
2022/12/23 05:21:14;;;;;;;21.60;10.15;;;;;;;6.84;100.00;100664.72;5075215;28;20110;-79
2022/12/23 05:23:39;;;;;;;21.20;10.45;;;;;;;6.82;100.00;100664.84;5093237;28;20081;-79
2022/12/23 05:26:04;;;;;;;26.65;11.98;;;;;;;6.82;100.00;100674.56;5093401;28;20093;-79
2022/12/23 05:28:30;;;;;;;30.42;12.65;;;;;;;6.81;100.00;100672.91;5093584;28;20032;-79
2022/12/23 05:31:04;;;;;;;25.42;11.77;;;;;;;6.80;100.00;100673.84;5093282;28;20024;-79
2022/12/23 05:33:30;;;;;;;23.90;11.38;;;;;;;6.81;100.00;100675.56;5093483;28;20027;-79
2022/12/23 05:35:56;;;;;;;23.10;10.50;;;;;;;6.79;100.00;100674.81;5093339;28;20470;-79
2022/12/23 05:38:22;;;;;;;22.92;10.20;;;;;;;6.78;100.00;100673.97;5093860;28;20028;-79
2022/12/23 05:40:47;;;;;;;21.75;9.82;;;;;;;6.78;100.00;100668.69;5093386;28;20049;-79
2022/12/23 05:43:13;;;;;;;30.00;11.43;;;;;;;6.76;100.00;100665.28;5093654;28;20042;-80
2022/12/23 05:45:38;;;;;;;26.60;11.10;;;;;;;6.77;100.00;100661.69;5093454;28;20437;-79
2022/12/23 05:48:04;;;;;;;25.27;10.93;;;;;;;6.76;100.00;100664.47;5093454;28;20024;-80
2022/12/23 05:50:29;;;;;;;30.83;12.20;;;;;;;6.77;100.00;100658.22;5075446;28;20119;-79
2022/12/23 05:52:56;;;;;;;25.95;11.15;;;;;;;6.77;100.00;100652.94;5075071;28;20024;-79
2022/12/23 05:55:23;;;;;;;28.13;11.13;;;;;;;6.78;100.00;100636.13;5094630;28;20032;-79
2022/12/23 05:57:48;;;;;;;27.08;11.55;;;;;;;6.78;100.00;100623.72;5093085;28;20577;-79
2022/12/23 06:00:14;;;;;;;28.88;11.30;;;;;;;6.79;100.00;100628.06;5092970;28;20048;-79
2022/12/23 06:02:40;;;;;;;32.20;12.10;;;;;;;6.80;100.00;100628.91;5093009;28;20182;-79
2022/12/23 06:05:05;;;;;;;29.70;11.60;;;;;;;6.80;100.00;100620.97;5092681;28;20115;-80
2022/12/23 06:07:31;;;;;;;29.08;12.02;;;;;;;6.80;100.00;100619.16;5092936;28;20028;-79
2022/12/23 06:09:56;;;;;;;33.63;11.82;;;;;;;6.82;100.00;100626.97;5093133;28;20100;-79
2022/12/23 06:12:21;;;;;;;29.90;10.85;;;;;;;6.81;100.00;100617.38;5095598;28;20016;-79
2022/12/23 06:14:47;;;;;;;29.25;12.13;;;;;;;6.81;100.00;100626.13;5096807;28;20101;-79
2022/12/23 06:17:12;;;;;;;32.22;12.40;;;;;;;6.80;100.00;100632.38;5096775;28;20032;-79
2022/12/23 06:19:37;;;;;;;33.53;11.90;;;;;;;6.81;100.00;100630.59;5096370;28;20024;-79
2022/12/23 06:22:03;;;;;;;33.25;11.55;;;;;;;6.82;100.00;100648.13;5096627;28;20452;-79
2022/12/23 06:24:28;;;;;;;34.03;11.43;;;;;;;6.84;100.00;100649.69;5096491;28;20130;-79
2022/12/23 06:26:54;;;;;;;23.38;9.82;;;;;;;6.83;100.00;100661.22;5097047;28;20024;-80
2022/12/23 06:29:20;;;;;;;28.73;10.60;;;;;;;6.82;100.00;100654.28;5096513;28;20045;-80
2022/12/23 06:31:46;;;;;;;30.25;10.38;;;;;;;6.81;100.00;100654.38;5096466;28;20134;-80
2022/12/23 06:34:11;;;;;;;26.13;9.63;;;;;;;6.80;100.00;100658.81;5096483;28;20059;-80
2022/12/23 06:36:37;;;;;;;29.45;10.50;;;;;;;6.77;100.00;100661.69;5096503;28;20405;-80
2022/12/23 06:39:02;;;;;;;25.83;10.30;;;;;;;6.77;100.00;100659.06;5078261;28;20024;-80
2022/12/23 06:41:27;;;;;;;26.98;10.00;;;;;;;6.78;100.00;100668.69;5096784;28;20028;-79
2022/12/23 06:43:53;;;;;;;26.85;10.05;;;;;;;6.77;100.00;100656.41;5096216;28;20036;-80
2022/12/23 06:46:18;;;;;;;23.77;9.98;;;;;;;6.77;100.00;100655.59;5096498;28;20063;-80
2022/12/23 06:48:43;;;;;;;28.27;10.10;;;;;;;6.78;100.00;100652.81;5095974;28;20020;-80
2022/12/23 06:51:10;;;;;;;27.50;10.95;;;;;;;6.77;100.00;100653.78;5095898;28;20464;-80
2022/12/23 06:53:35;;;;;;;25.88;9.73;;;;;;;6.77;100.00;100659.06;5096043;28;20028;-80
2022/12/23 06:56:02;;;;;;;29.33;11.13;;;;;;;6.78;100.00;100660.75;5096002;28;20031;-80
2022/12/23 06:58:28;;;;;;;27.63;10.48;;;;;;;6.80;100.00;100671.22;5095923;28;20032;-80
2022/12/23 07:00:53;;;;;;;24.88;10.55;;;;;;;6.79;100.00;100670.38;5095933;28;20024;-80
2022/12/23 07:03:19;;;;;;;26.75;11.02;;;;;;;6.78;100.00;100665.22;5095811;28;20024;-79
2022/12/23 07:05:48;;;;;;;32.72;11.80;;;;;;;6.77;100.00;100674.94;5096330;28;20034;-79
2022/12/23 07:08:14;;;;;;;27.35;10.80;;;;;;;6.78;100.00;100671.31;5095267;28;20623;-80
2022/12/23 07:10:40;;;;;;;30.60;11.80;;;;;;;6.79;100.00;100677.44;5095685;28;20075;-80
2022/12/23 07:13:05;;;;;;;35.78;12.15;;;;;;;6.77;100.00;100669.63;5096420;28;20107;-79
2022/12/23 07:15:30;;;;;;;40.58;13.15;;;;;;;6.78;100.00;100671.31;5095606;28;20039;-78
2022/12/23 07:17:56;;;;;;;35.60;13.20;;;;;;;6.79;100.00;100664.22;5095600;28;20028;-78
2022/12/23 07:20:21;;;;;;;44.95;15.00;;;;;;;6.79;100.00;100667.72;5095532;28;20035;-79
2022/12/23 07:22:49;;;;;;;41.35;14.70;;;;;;;6.79;100.00;100664.22;5095281;28;20466;-79
2022/12/23 07:25:15;;;;;;;49.83;16.15;;;;;;;6.80;100.00;100664.09;5095707;28;20039;-79
2022/12/23 07:27:40;;;;;;;52.60;17.15;;;;;;;6.80;100.00;100665.91;5078064;28;20077;-78
2022/12/23 07:30:06;;;;;;;48.97;15.43;;;;;;;6.80;100.00;100665.91;5094851;28;20485;-79
2022/12/23 07:32:32;;;;;;;45.63;15.50;;;;;;;6.80;100.00;100660.63;5096225;28;20028;-78
2022/12/23 07:34:57;;;;;;;47.90;16.05;;;;;;;6.79;100.00;100669.50;5077134;28;20450;-77
2022/12/23 07:37:22;;;;;;;58.33;16.40;;;;;;;6.79;100.00;100659.81;5095186;28;20107;-78
2022/12/23 07:39:48;;;;;;;52.92;16.05;;;;;;;6.79;100.00;100654.50;5095298;28;20097;-78
2022/12/23 07:42:13;;;;;;;54.13;17.75;;;;;;;6.80;100.00;100652.69;5095161;28;20046;-78
2022/12/23 07:44:38;;;;;;;53.10;16.88;;;;;;;6.80;100.00;100639.47;5095316;28;20020;-78
2022/12/23 07:47:04;;;;;;;51.67;16.35;;;;;;;6.79;100.00;100638.66;5095144;28;20031;-77
2022/12/23 07:49:29;;;;;;;48.47;14.57;;;;;;;6.79;100.00;100648.34;5095332;28;20032;-76
2022/12/23 07:51:55;;;;;;;45.90;15.63;;;;;;;6.78;100.00;100655.47;5094652;28;20035;-77
2022/12/23 07:54:20;;;;;;;55.90;17.10;;;;;;;6.76;100.00;100636.22;5094830;28;20032;-76
2022/12/23 07:56:45;;;;;;;53.92;16.52;;;;;;;6.76;100.00;100630.91;5094605;28;20101;-76
2022/12/23 07:59:11;;;;;;;61.70;17.92;;;;;;;6.78;100.00;100636.13;5094792;28;20062;-75
2022/12/23 08:01:36;;;;;;;54.28;17.52;;;;;;;6.77;100.00;100645.84;5094818;28;20024;-75
2022/12/23 08:04:01;;;;;;;54.83;18.10;;;;;;;6.77;100.00;100634.44;5094560;28;20024;-77
2022/12/23 08:06:27;;;;;;;64.65;19.23;;;;;;;6.78;100.00;100629.00;5094755;28;20023;-75
2022/12/23 08:08:52;;;;;;;62.88;20.45;;;;;;;6.78;100.00;100621.09;5094275;28;20028;-76
2022/12/23 08:11:17;;;;;;;72.03;20.65;;;;;;;6.81;100.00;100622.66;5094954;28;20048;-75
2022/12/23 08:13:44;;;;;;;79.30;22.45;;;;;;;6.81;100.00;100602.34;5093946;28;20380;-74
2022/12/23 08:16:10;;;;;;;67.82;20.98;;;;;;;6.82;100.00;100593.44;5093908;28;20024;-76
2022/12/23 08:18:38;;;;;;;62.80;19.08;;;;;;;6.84;100.00;100603.91;5076570;28;20024;-76
2022/12/23 08:21:21;;;;;;;66.25;19.77;;;;;;;6.84;100.00;100591.50;5094093;28;20107;-76
2022/12/23 08:23:47;;;;;;;71.78;19.30;;;;;;;6.85;100.00;100603.78;5094234;28;20388;-76
2022/12/23 08:26:14;;;;;;;82.28;20.52;;;;;;;6.89;100.00;100607.00;5094002;28;20141;-76
2022/12/23 08:28:41;;;;;;;87.18;21.13;;;;;;;6.91;100.00;100599.78;5093947;28;20032;-77
2022/12/23 08:31:09;;;;;;;69.13;19.33;;;;;;;6.89;100.00;100586.69;5093899;28;20514;-76
2022/12/23 08:33:35;;;;;;;78.03;18.45;;;;;;;6.91;100.00;100586.56;5093793;28;20467;-76
2022/12/23 08:36:02;;;;;;;73.57;19.20;;;;;;;6.92;100.00;100575.03;5075060;28;20024;-76
2022/12/23 08:38:27;;;;;;;71.15;18.63;;;;;;;6.92;100.00;100579.50;5058937;28;20028;-77
2022/12/23 08:40:53;;;;;;;66.72;17.98;;;;;;;6.96;100.00;100586.22;5093362;28;20459;-77
2022/12/23 08:43:18;;;;;;;58.80;18.10;;;;;;;6.97;100.00;100587.88;5093757;28;20028;-76
2022/12/23 08:45:43;;;;;;;66.70;16.98;;;;;;;6.97;100.00;100591.38;5093609;28;20073;-75
2022/12/23 08:48:09;;;;;;;68.15;16.45;;;;;;;6.96;100.00;100589.69;5093574;28;20294;-75
2022/12/23 08:50:39;;;;;;;61.22;16.45;;;;;;;6.96;100.00;100580.94;5093364;28;20090;-75
2022/12/23 08:53:05;;;;;;;53.97;14.52;;;;;;;6.97;100.00;100583.47;5093762;28;20028;-79
2022/12/23 08:55:30;;;;;;;48.17;14.25;;;;;;;7.00;100.00;100582.34;5093257;28;20107;-78
2022/12/23 08:57:55;;;;;;;47.40;14.38;;;;;;;7.00;100.00;100575.28;5093507;28;20054;-79
2022/12/23 09:00:21;;;;;;;46.42;14.07;;;;;;;7.02;100.00;100580.44;5093801;28;20024;-79
2022/12/23 09:02:46;;;;;;;39.47;13.05;;;;;;;7.02;100.00;100578.63;5093743;28;20409;-78
2022/12/23 09:05:11;;;;;;;41.60;13.18;;;;;;;7.02;100.00;100573.34;5093383;28;20036;-80
2022/12/23 09:07:37;;;;;;;45.00;13.88;;;;;;;7.05;100.00;100570.44;5093570;28;20363;-81
2022/12/23 09:10:03;;;;;;;43.08;12.82;;;;;;;7.07;100.00;100568.50;5093155;28;20044;-80
2022/12/23 09:12:28;;;;;;;42.58;12.80;;;;;;;7.07;100.00;100570.31;5093309;28;20135;-81
2022/12/23 09:14:53;;;;;;;40.60;12.93;;;;;;;7.08;100.00;100569.38;5075588;28;20047;-79
2022/12/23 09:17:19;;;;;;;45.60;12.48;;;;;;;7.10;100.00;100570.06;5093219;28;20115;-79
2022/12/23 09:19:44;;;;;;;43.28;12.48;;;;;;;7.12;100.00;100569.94;5093233;28;20032;-79
2022/12/23 09:22:09;;;;;;;43.28;13.65;;;;;;;7.12;100.00;100565.50;5093018;28;20035;-79
2022/12/23 09:24:36;;;;;;;45.28;14.20;;;;;;;7.14;100.00;100563.56;5093699;28;20035;-84
2022/12/23 09:27:01;;;;;;;52.35;14.98;;;;;;;7.16;100.00;100548.41;5092926;28;20445;-79
2022/12/23 09:29:27;;;;;;;53.22;15.75;;;;;;;7.15;100.00;100546.75;5075032;28;20035;-80
2022/12/23 09:31:52;;;;;;;55.92;16.42;;;;;;;7.16;100.00;100531.69;5093207;28;20032;-79
2022/12/23 09:34:17;;;;;;;62.58;17.02;;;;;;;7.15;100.00;100520.28;5093231;28;20040;-79
2022/12/23 09:36:43;;;;;;;53.47;15.52;;;;;;;7.16;100.00;100513.19;5093119;28;20032;-79
2022/12/23 09:39:09;;;;;;;51.42;15.68;;;;;;;7.16;100.00;100511.34;5092719;28;20036;-80
2022/12/23 09:41:49;;;;;;;48.47;15.35;;;;;;;7.17;100.00;100505.13;5092737;28;20119;-79
2022/12/23 09:44:43;;;;;;;45.78;14.98;;;;;;;7.17;100.00;100502.47;5092939;28;20077;-78
2022/12/23 09:47:14;;;;;;;43.63;13.82;;;;;;;7.20;100.00;100504.03;5055205;28;20028;-77
2022/12/23 09:49:47;;;;;;;48.50;13.57;;;;;;;7.19;100.00;100505.00;5097044;28;20031;-77
2022/12/23 09:52:18;;;;;;;40.38;14.15;;;;;;;7.18;100.00;100501.50;5096903;28;20134;-79
2022/12/23 09:54:48;;;;;;;43.00;13.48;;;;;;;7.19;100.00;100494.41;5097015;28;20024;-78
2022/12/23 09:57:20;;;;;;;36.55;11.85;;;;;;;7.19;100.00;100502.34;5096878;28;20054;-78
2022/12/23 10:00:12;;;;;;;33.05;11.85;;;;;;;7.19;100.00;100500.53;5096678;28;20032;-76
2022/12/23 10:02:49;;;;;;;38.83;12.10;;;;;;;7.18;100.00;100506.81;5097095;28;20047;-77
2022/12/23 10:05:23;;;;;;;36.22;12.70;;;;;;;7.19;100.00;100507.63;5096801;28;20020;-77
2022/12/23 10:07:54;;;;;;;35.42;11.95;;;;;;;7.22;100.00;100497.63;5096632;28;20027;-77
2022/12/23 10:10:36;;;;;;;32.20;12.20;;;;;;;7.24;100.00;100497.53;5096183;28;20368;-81
2022/12/23 10:13:04;;;;;;;;;;;;;;;7.24;100.00;100492.25;5097453;28;20062;-78
2022/12/23 10:15:37;;;;;;;31.85;12.30;;;;;;;7.23;100.00;100496.66;5096786;28;19915;-79
2022/12/23 10:18:21;;;;;;;39.10;12.70;;;;;;;7.23;100.00;100487.91;5097104;28;20036;-77
2022/12/23 10:20:52;;;;;;;33.45;12.15;;;;;;;7.22;100.00;100492.34;5096743;28;20046;-81
2022/12/23 10:23:48;;;;;;;44.47;12.75;;;;;;;7.21;100.00;100490.69;5078673;28;20028;-79
2022/12/23 10:26:22;;;;;;;44.50;13.82;;;;;;;7.22;100.00;100486.22;5092106;28;20040;-78
2022/12/23 10:28:49;;;;;;;40.50;12.80;;;;;;;7.22;100.00;100483.56;5096762;28;20044;-81
2022/12/23 10:31:19;;;;;;;49.72;14.23;;;;;;;7.21;100.00;100479.22;5097125;28;20082;-77
2022/12/23 10:33:47;;;;;;;53.03;14.70;;;;;;;7.21;100.00;100473.94;5096621;28;20107;-76
2022/12/23 10:36:22;;;;;;;54.05;14.88;;;;;;;7.20;100.00;100461.69;5096168;28;20035;-83
2022/12/23 10:39:19;;;;;;;74.00;16.38;;;;;;;7.19;100.00;100465.28;5096693;28;20024;-78
2022/12/23 10:42:00;;;;;;;82.10;17.65;;;;;;;7.18;100.00;100460.97;5096189;28;20460;-79
2022/12/23 10:45:02;;;;;;;77.97;17.60;;;;;;;7.18;100.00;100459.19;5096338;28;20028;-79
2022/12/23 10:47:39;;;;;;;100.32;19.05;;;;;;;7.18;100.00;100456.53;5092951;28;20040;-78
2022/12/23 10:50:17;;;;;;;94.72;18.02;;;;;;;7.18;100.00;100456.53;5096271;28;20058;-76
2022/12/23 10:52:44;;;;;;;101.47;18.65;;;;;;;7.19;100.00;100457.34;5096189;28;20028;-77
2022/12/23 10:55:26;;;;;;;97.85;19.40;;;;;;;7.17;100.00;100454.84;5077818;28;20464;-77
2022/12/23 10:57:52;;;;;;;;;;;;;;;7.15;100.00;100443.56;5095955;28;20074;-76
2022/12/23 11:00:20;;;;;;;124.88;23.10;;;;;;;7.15;100.00;100442.69;5095823;28;19904;-76
2022/12/23 11:03:15;;;;;;;108.82;21.45;;;;;;;7.14;100.00;100430.44;5096252;28;20028;-76
2022/12/23 11:05:41;;;;;;;99.75;21.20;;;;;;;7.16;100.00;100433.78;5095831;28;20024;-76
2022/12/23 11:08:08;;;;;;;117.53;23.95;;;;;;;7.16;100.00;100420.56;5095810;28;20023;-76
2022/12/23 11:10:34;;;;;;;117.15;23.70;;;;;;;7.16;100.00;100404.69;5095902;28;20076;-78
2022/12/23 11:13:00;;;;;;;106.88;22.98;;;;;;;7.14;100.00;100396.88;5096166;28;20090;-75
2022/12/23 11:15:31;;;;;;;102.68;21.75;;;;;;;7.12;100.00;100382.97;5077445;28;20470;-79
2022/12/23 11:18:26;;;;;;;;;;;;;;;7.11;100.00;100377.78;5096545;28;20494;-76
2022/12/23 11:21:05;;;;;;;88.45;20.20;;;;;;;7.10;100.00;100368.16;5077940;28;19908;-76
2022/12/23 11:23:34;;;;;;;83.35;20.75;;;;;;;7.09;100.00;100363.84;5095514;28;20020;-76
2022/12/23 11:26:10;;;;;;;83.38;21.33;;;;;;;7.08;100.00;100360.38;5095940;28;20432;-77
2022/12/23 11:28:39;;;;;;;76.05;20.33;;;;;;;7.06;100.00;100354.34;5095267;28;20106;-77
2022/12/23 11:31:10;;;;;;;85.57;21.50;;;;;;;7.04;100.00;100349.19;5094983;28;20026;-78
2022/12/23 11:33:44;;;;;;;85.90;21.50;;;;;;;7.04;100.00;100345.69;5095966;28;20069;-77
2022/12/23 11:36:18;;;;;;;79.53;19.92;;;;;;;7.01;100.00;100338.84;5095456;28;20059;-77
2022/12/23 11:38:59;;;;;;;73.32;21.17;;;;;;;7.00;100.00;100338.97;5095443;28;20059;-76
2022/12/23 11:41:28;;;;;;;83.70;21.63;;;;;;;7.00;100.00;100334.56;5095173;28;20024;-81
2022/12/23 11:44:00;;;;;;;83.47;21.15;;;;;;;6.99;100.00;100322.28;5095363;28;20020;-79
2022/12/23 11:46:31;;;;;;;82.00;21.55;;;;;;;6.98;100.00;100317.94;5094795;28;20028;-80
2022/12/23 11:49:08;;;;;;;;;;;;;;;6.98;100.00;100314.47;5095561;28;20028;-79
2022/12/23 11:51:34;;;;;;;68.45;21.17;;;;;;;6.98;100.00;100310.00;5095033;28;20343;-79